Αρχική σελίδα
METAR-TAF:

METAR-TAF

Αεροδρόμια :

Μπρουνέι, Μπρουνέι

γεωγραφικό πλάτος: 04-56N, γεωγραφικό μήκος: 114-56E, υψόμετρο: 22 μ

Παρών καιρός

Η αναφορά έγινε 28 λεπτά πριν, στις 15:30 UTC
Άνεμος 1 kt από BA
Θερμοκρασία 26°C
Υγρασία 89%
Πίεση 1012 hPa
Ορατότητα: 9000 μ
Λίγα νέφη σε ύψος 1400 πόδια
Αρκετά νέφη σε ύψος 30000 πόδια

METAR: WBSB 181530Z 04001KT 9000 FEW014 BKN300 26/24 Q1012 NOSIG

Χρόνος: 23:58 (15:58 UTC)

Πρόγνωση Καιρού

Η αναφορά έγινε 5 ώρες και 8 λεπτά πριν, στις 10:50 UTC
Η πρόγνωση ισχύει από τις 18 στις 12 UTC έως τις 19 στις 18 UTC
Άνεμος 4 kt από BA
Ορατότητα: 8000 μ
Λίγα νέφη σε ύψος 1500 πόδια
Καθιστάμενος
από 19 στις 02 UTC έως τις 19 στις 04 UTC
Άνεμος 10 kt από Β/BΔ
Διάσπαρτα νέφη σε ύψος 1600 πόδια
Λίγα νέφη σε ύψος 1700 πόδια, Σωρειτομελανίτες.

TAF: WBSB 181050Z 1812/1918 04004KT 8000 FEW015 BECMG 1902/1904 34010KT SCT016 FEW017CB

Μετεωρολογικές αναφορές και προγνώσεις για περισσότερα από 4000 αεροδρόμια (δελτία METAR και TAF).

Οι διαθέσιμοι σταθμοί απεικονίζονται στο χάρτη με κίτρινες και κόκκινες κουκκίδες.

Μετακινήστε το ποντίκι πάνω από τις κουκκίδες για να δείτε το όνομα του σταθμού.

Στη συνέχεια, κάντε κλικ για να δείτε τις μετεωρολογικές αναφορές και τις προγνώσεις καιρού.

Για να αλλάξετε το χάρτη: κάντε κλικ στα πράσινα κουμπιά με τον μαύρο σταυρό για να ζουμάρετε, στο πράσινο κουμπί με την παύλα για να αφαιρέσετε το ζουμ ή στα πράσινα βέλη για να αντιπαραβάλλετε χάρτες.


METAR-TAF: